Time;durP1;ratioP1;P1;durP2;ratioP2;P2;SDS_P1;SDS_P2;PMS_P1;PMS_P2;Temp;Humidity;BMP_temperature;BMP_pressure;BME280_temperature;BME280_humidity;BME280_pressure;Samples;Min_cycle;Max_cycle;Signal;HPM_P1;HPM_P2
2022/03/27 00:02:10;;;;;;;6.70;5.75;;;20.50;38.20;;;;;;4982913;28;20468;-77
2022/03/27 00:04:36;;;;;;;8.18;6.07;;;20.40;38.20;;;;;;4984039;28;20495;-77
2022/03/27 00:07:02;;;;;;;6.80;5.47;;;20.40;38.20;;;;;;5001888;28;20037;-77
2022/03/27 00:09:28;;;;;;;7.13;5.78;;;20.50;38.30;;;;;;5001690;28;20501;-77
2022/03/27 00:11:53;;;;;;;6.57;5.50;;;20.50;38.30;;;;;;4986278;28;20022;-77
2022/03/27 00:14:20;;;;;;;7.13;5.72;;;20.50;38.30;;;;;;5004116;28;20026;-77
2022/03/27 00:16:46;;;;;;;6.57;5.57;;;20.50;38.40;;;;;;5004301;28;20018;-78
2022/03/27 00:19:11;;;;;;;7.03;5.82;;;20.40;38.40;;;;;;5003028;28;20029;-77
2022/03/27 00:21:38;;;;;;;7.30;5.82;;;20.40;38.40;;;;;;4998674;28;20060;-77
2022/03/27 00:24:05;;;;;;;7.10;5.43;;;20.40;38.50;;;;;;4998417;28;20029;-77
2022/03/27 00:26:33;;;;;;;7.70;5.90;;;20.40;38.50;;;;;;4998923;28;20022;-77
2022/03/27 00:28:59;;;;;;;7.13;5.47;;;20.40;38.50;;;;;;5015704;28;20017;-78
2022/03/27 00:31:25;;;;;;;7.10;5.40;;;20.30;38.50;;;;;;4998400;28;20037;-76
2022/03/27 00:33:53;;;;;;;9.45;5.70;;;20.40;38.60;;;;;;4998656;28;20129;-76
2022/03/27 00:36:21;;;;;;;8.82;6.20;;;20.40;38.60;;;;;;4987805;28;20049;-79
2022/03/27 00:38:48;;;;;;;6.55;5.25;;;20.40;38.60;;;;;;5022909;28;20018;-77
2022/03/27 00:41:17;;;;;;;6.10;5.50;;;20.40;38.60;;;;;;5007654;28;20033;-77
2022/03/27 00:43:43;;;;;;;13.85;5.85;;;20.40;38.70;;;;;;5008355;28;20010;-78
2022/03/27 00:46:09;;;;;;;6.65;4.88;;;20.40;38.70;;;;;;4992219;28;20489;-77
2022/03/27 00:48:37;;;;;;;7.03;5.38;;;20.40;38.70;;;;;;5007667;28;20018;-78
2022/03/27 00:51:03;;;;;;;6.53;5.25;;;20.30;38.70;;;;;;5018930;28;20006;-77
2022/03/27 00:53:30;;;;;;;6.88;5.03;;;20.40;38.70;;;;;;5001150;28;20037;-77
2022/03/27 00:55:56;;;;;;;6.63;5.03;;;20.40;38.80;;;;;;4985175;28;20477;-81
2022/03/27 00:58:22;;;;;;;6.55;4.82;;;20.30;38.80;;;;;;5000758;28;20026;-77
2022/03/27 01:01:13;;;;;;;8.15;5.05;;;20.30;38.80;;;;;;5017410;28;20037;-75
2022/03/27 01:03:40;;;;;;;7.90;5.32;;;20.30;38.90;;;;;;5017546;28;20022;-75
2022/03/27 01:06:17;;;;;;;5.90;5.30;;;20.30;38.90;;;;;;4987698;28;20512;-76
2022/03/27 01:11:29;;;;;;;6.22;5.07;;;20.30;38.90;;;;;;5024245;28;20037;-76
2022/03/27 01:13:56;;;;;;;5.82;4.95;;;20.30;39.00;;;;;;5006426;28;20022;-76
2022/03/27 01:16:46;;;;;;;6.45;5.03;;;20.30;39.00;;;;;;5003703;28;20030;-75
2022/03/27 01:19:15;;;;;;;6.38;5.10;;;20.30;39.00;;;;;;5004359;28;20025;-76
2022/03/27 01:21:42;;;;;;;6.78;5.05;;;20.30;39.10;;;;;;5006729;28;20049;-78
2022/03/27 01:24:09;;;;;;;6.43;5.20;;;20.30;39.10;;;;;;5007399;28;20014;-76
2022/03/27 01:26:35;;;;;;;6.80;4.85;;;20.30;39.10;;;;;;4989223;28;20018;-75
2022/03/27 01:29:02;;;;;;;8.25;5.78;;;20.30;39.10;;;;;;5004387;28;20025;-75
2022/03/27 01:31:28;;;;;;;6.05;5.00;;;20.30;39.20;;;;;;5002792;28;20055;-76
2022/03/27 01:33:54;;;;;;;5.35;4.80;;;20.30;39.10;;;;;;5019547;28;20042;-77
2022/03/27 01:36:34;;;;;;;5.88;4.78;;;20.30;39.10;;;;;;5001028;28;20022;-76
2022/03/27 01:39:01;;;;;;;6.32;5.18;;;20.30;39.20;;;;;;5002216;28;20022;-78
2022/03/27 01:41:27;;;;;;;6.30;4.85;;;20.20;39.20;;;;;;4985371;28;20033;-76
2022/03/27 01:43:53;;;;;;;5.60;4.90;;;20.30;39.30;;;;;;5000869;28;20014;-76
2022/03/27 01:46:23;;;;;;;6.00;4.78;;;20.30;39.30;;;;;;4999885;28;20029;-75
2022/03/27 01:48:49;;;;;;;7.05;5.10;;;20.20;39.30;;;;;;5016899;28;20093;-75
2022/03/27 01:51:15;;;;;;;5.72;4.68;;;20.20;39.30;;;;;;5002249;28;20385;-75
2022/03/27 01:53:44;;;;;;;6.53;4.90;;;20.20;39.30;;;;;;5003073;28;20065;-75
2022/03/27 01:56:09;;;;;;;5.65;4.72;;;20.20;39.40;;;;;;5001958;28;20049;-74
2022/03/27 01:58:39;;;;;;;5.65;4.55;;;20.20;39.30;;;;;;5002072;28;20024;-75
2022/03/27 02:01:08;;;;;;;6.65;4.65;;;20.20;39.40;;;;;;5002563;28;20017;-75
2022/03/27 02:03:35;;;;;;;5.78;4.82;;;20.30;39.50;;;;;;5003567;28;20052;-75
2022/03/27 02:06:05;;;;;;;6.90;4.55;;;20.20;39.40;;;;;;5004607;28;20022;-74
2022/03/27 02:08:33;;;;;;;5.82;4.53;;;20.20;39.50;;;;;;5000545;28;20070;-75
2022/03/27 02:10:59;;;;;;;6.40;5.00;;;20.20;39.50;;;;;;4983777;28;20014;-74
2022/03/27 02:13:25;;;;;;;6.75;4.93;;;20.20;39.50;;;;;;4982570;28;20042;-74
2022/03/27 02:15:53;;;;;;;5.97;4.70;;;20.20;39.50;;;;;;4999197;28;20022;-74
2022/03/27 02:18:19;;;;;;;5.55;4.28;;;20.20;39.60;;;;;;4998465;28;20016;-74
2022/03/27 02:20:46;;;;;;;5.93;4.40;;;20.20;39.60;;;;;;4998722;28;20042;-74
2022/03/27 02:23:14;;;;;;;5.57;4.53;;;20.10;39.60;;;;;;4984515;28;20054;-74
2022/03/27 02:25:40;;;;;;;5.30;4.35;;;20.20;39.60;;;;;;5002735;28;20038;-76
2022/03/27 02:28:06;;;;;;;6.30;4.80;;;20.10;39.60;;;;;;5003211;28;20027;-74
2022/03/27 02:30:32;;;;;;;5.10;4.47;;;20.20;39.70;;;;;;5001900;28;20015;-78
2022/03/27 02:32:58;;;;;;;6.20;4.85;;;20.20;39.70;;;;;;4983524;28;20127;-75
2022/03/27 02:35:24;;;;;;;4.97;4.20;;;20.10;39.70;;;;;;4995382;28;20057;-78
2022/03/27 02:37:50;;;;;;;4.72;4.20;;;20.10;39.70;;;;;;4993628;28;20477;-74
2022/03/27 02:40:16;;;;;;;4.65;4.10;;;20.20;39.80;;;;;;4993212;28;20018;-74
2022/03/27 02:42:41;;;;;;;5.55;4.50;;;20.20;39.80;;;;;;4993118;28;20496;-74
2022/03/27 02:45:08;;;;;;;5.55;4.30;;;20.20;39.80;;;;;;4976972;28;20105;-74
2022/03/27 02:47:34;;;;;;;5.65;4.90;;;20.10;39.80;;;;;;4993077;28;20022;-74
2022/03/27 02:50:00;;;;;;;6.20;4.40;;;20.10;39.80;;;;;;4995705;28;20030;-74
2022/03/27 02:52:27;;;;;;;6.85;4.65;;;20.10;39.90;;;;;;5000801;28;20016;-74
2022/03/27 02:54:54;;;;;;;5.38;4.53;;;20.10;39.90;;;;;;5003396;28;20027;-74
2022/03/27 02:57:21;;;;;;;5.75;4.18;;;20.10;39.90;;;;;;5002955;28;20026;-76
2022/03/27 02:59:52;;;;;;;7.43;4.55;;;20.10;39.90;;;;;;5001053;28;20030;-74
2022/03/27 03:02:19;;;;;;;4.88;4.20;;;20.10;40.00;;;;;;5000257;28;20074;-74
2022/03/27 03:04:44;;;;;;;5.57;4.50;;;20.10;40.00;;;;;;4998090;28;20019;-74
2022/03/27 03:07:10;;;;;;;5.72;4.13;;;20.10;40.10;;;;;;4994169;28;20378;-74
2022/03/27 03:09:37;;;;;;;5.10;4.32;;;20.10;40.10;;;;;;4977927;28;20015;-74
2022/03/27 03:12:03;;;;;;;7.47;4.72;;;20.10;40.10;;;;;;4994811;28;20547;-75
2022/03/27 03:14:29;;;;;;;6.50;4.63;;;20.00;40.10;;;;;;4994620;28;20031;-74
2022/03/27 03:16:56;;;;;;;6.60;4.43;;;20.00;40.20;;;;;;4999471;28;20050;-74
2022/03/27 03:19:22;;;;;;;6.30;4.25;;;20.10;40.20;;;;;;4997981;28;20019;-74
2022/03/27 03:21:49;;;;;;;4.93;4.22;;;20.10;40.30;;;;;;4996447;28;20034;-77
2022/03/27 03:24:15;;;;;;;6.32;4.32;;;20.10;40.20;;;;;;4996295;28;20116;-73
2022/03/27 03:26:41;;;;;;;5.68;3.97;;;20.00;40.20;;;;;;4997888;28;20026;-73
2022/03/27 03:29:08;;;;;;;4.93;4.30;;;20.00;40.30;;;;;;4996348;28;20500;-74
2022/03/27 03:31:34;;;;;;;5.07;4.13;;;20.00;40.30;;;;;;4996485;28;20037;-73
2022/03/27 03:34:00;;;;;;;5.22;4.20;;;20.00;40.30;;;;;;4997365;28;20027;-73
2022/03/27 03:36:27;;;;;;;5.35;4.43;;;20.00;40.30;;;;;;5000246;28;20046;-74
2022/03/27 03:38:53;;;;;;;5.35;4.00;;;20.00;40.40;;;;;;5000427;28;20023;-73
2022/03/27 03:41:20;;;;;;;5.43;4.45;;;20.00;40.40;;;;;;5002562;28;20033;-75
2022/03/27 03:43:47;;;;;;;6.35;4.03;;;20.00;40.50;;;;;;5003171;28;20023;-75
2022/03/27 03:46:12;;;;;;;7.25;4.72;;;20.00;40.50;;;;;;4987597;28;20077;-76
2022/03/27 03:48:39;;;;;;;5.10;4.18;;;19.90;40.60;;;;;;5004602;28;20022;-75
2022/03/27 03:51:05;;;;;;;4.72;3.80;;;19.90;40.60;;;;;;4985938;28;20010;-74
2022/03/27 03:53:32;;;;;;;4.25;3.80;;;19.90;40.60;;;;;;5000199;28;20018;-75
2022/03/27 03:55:58;;;;;;;3.92;3.53;;;19.90;40.60;;;;;;4997008;28;20018;-74
2022/03/27 03:58:24;;;;;;;5.00;3.70;;;20.00;40.80;;;;;;4997108;28;20028;-74
2022/03/27 04:00:50;;;;;;;4.80;3.72;;;19.90;40.80;;;;;;4999863;28;20425;-75
2022/03/27 04:03:16;;;;;;;4.80;3.78;;;19.90;40.80;;;;;;4998902;28;20031;-75
2022/03/27 04:05:42;;;;;;;6.20;4.13;;;19.90;40.80;;;;;;4985149;28;20069;-78
2022/03/27 04:08:09;;;;;;;4.13;3.55;;;19.90;40.80;;;;;;5002725;28;20049;-77
2022/03/27 04:10:35;;;;;;;4.60;3.90;;;19.90;40.80;;;;;;5001726;28;20074;-75
2022/03/27 04:13:02;;;;;;;4.78;3.72;;;19.90;40.80;;;;;;5002370;28;20096;-78
2022/03/27 04:15:28;;;;;;;4.13;3.60;;;19.90;40.90;;;;;;5001879;28;20105;-75
2022/03/27 04:17:54;;;;;;;4.70;3.95;;;19.90;41.00;;;;;;5000349;28;20084;-79
2022/03/27 04:20:21;;;;;;;4.55;3.65;;;19.90;41.00;;;;;;4998883;28;20018;-79
2022/03/27 04:22:47;;;;;;;4.95;3.58;;;19.90;41.10;;;;;;4997630;28;20042;-75
2022/03/27 04:25:15;;;;;;;6.47;3.80;;;19.80;41.10;;;;;;4998581;28;20046;-75
2022/03/27 04:27:41;;;;;;;4.22;3.47;;;19.90;41.10;;;;;;4980785;28;20014;-74
2022/03/27 04:30:08;;;;;;;4.53;3.65;;;19.80;41.10;;;;;;4981327;28;20049;-74
2022/03/27 04:32:35;;;;;;;4.05;3.47;;;19.80;41.20;;;;;;4997296;28;20019;-74
2022/03/27 04:35:01;;;;;;;5.65;3.83;;;19.80;41.20;;;;;;4997077;28;20469;-74
2022/03/27 04:37:27;;;;;;;5.00;3.47;;;19.80;41.20;;;;;;4997582;28;20041;-74
2022/03/27 04:39:59;;;;;;;4.15;3.42;;;19.80;41.30;;;;;;4996769;28;20042;-75
2022/03/27 04:42:26;;;;;;;4.43;3.60;;;19.80;41.30;;;;;;4997724;28;20077;-74
2022/03/27 04:44:53;;;;;;;4.88;3.40;;;19.80;41.40;;;;;;4997134;28;20101;-76
2022/03/27 04:47:19;;;;;;;5.30;3.58;;;19.80;41.30;;;;;;4997520;28;20031;-74
2022/03/27 04:49:45;;;;;;;3.78;3.40;;;19.80;41.40;;;;;;4998479;28;20014;-74
2022/03/27 04:52:12;;;;;;;5.05;3.88;;;19.80;41.40;;;;;;4997328;28;20034;-73
2022/03/27 04:54:38;;;;;;;4.18;3.50;;;19.80;41.50;;;;;;4996878;28;20030;-77
2022/03/27 04:57:04;;;;;;;5.60;3.63;;;19.80;41.50;;;;;;4996359;28;20018;-74
2022/03/27 04:59:30;;;;;;;4.05;3.20;;;19.70;41.50;;;;;;4996192;28;20085;-74
2022/03/27 05:01:57;;;;;;;3.90;3.42;;;19.70;41.50;;;;;;4997390;28;20481;-74
2022/03/27 05:04:23;;;;;;;4.63;3.20;;;19.80;41.60;;;;;;4997109;28;20018;-74
2022/03/27 05:06:49;;;;;;;3.83;3.25;;;19.80;41.60;;;;;;4999391;28;20389;-74
2022/03/27 05:09:18;;;;;;;4.25;3.67;;;19.70;41.60;;;;;;5000971;28;20033;-75
2022/03/27 05:11:43;;;;;;;4.40;3.42;;;19.70;41.70;;;;;;5018041;28;20040;-75
2022/03/27 05:14:10;;;;;;;4.80;3.88;;;19.70;41.70;;;;;;5000779;28;20022;-75
2022/03/27 05:16:37;;;;;;;5.25;3.97;;;19.70;41.70;;;;;;4984163;28;20029;-76
2022/03/27 05:19:04;;;;;;;5.93;4.13;;;19.70;41.70;;;;;;5017811;28;20097;-75
2022/03/27 05:21:30;;;;;;;5.90;4.15;;;19.70;41.70;;;;;;4983502;28;20036;-76
2022/03/27 05:23:57;;;;;;;5.90;4.20;;;19.70;41.80;;;;;;4999433;28;20018;-75
2022/03/27 05:26:23;;;;;;;6.45;4.20;;;19.70;41.80;;;;;;4998958;28;20097;-75
2022/03/27 05:28:49;;;;;;;5.72;4.10;;;19.70;41.80;;;;;;4983099;28;20057;-80
2022/03/27 05:31:16;;;;;;;6.93;4.45;;;19.70;41.80;;;;;;5017374;28;20097;-75
2022/03/27 05:33:42;;;;;;;6.93;4.72;;;19.70;41.90;;;;;;5000886;28;20068;-75
2022/03/27 05:36:09;;;;;;;7.72;4.72;;;19.70;41.90;;;;;;5018860;28;20022;-76
2022/03/27 05:38:39;;;;;;;6.90;4.93;;;19.70;41.90;;;;;;5000191;28;20014;-77
2022/03/27 05:41:05;;;;;;;;;;;19.70;42.00;;;;;;4986508;28;20022;-77
2022/03/27 05:43:32;;;;;;;8.93;5.70;;;19.70;42.00;;;;;;5017117;28;19908;-76
2022/03/27 05:45:59;;;;;;;9.35;5.78;;;19.70;42.00;;;;;;4984569;28;20032;-75
2022/03/27 05:48:25;;;;;;;10.40;6.47;;;19.60;42.00;;;;;;5017878;28;20473;-80
2022/03/27 05:50:51;;;;;;;11.10;6.55;;;19.60;42.10;;;;;;4983577;28;20025;-76
2022/03/27 05:53:18;;;;;;;12.63;7.43;;;19.60;42.10;;;;;;5000260;28;20072;-76
2022/03/27 05:55:44;;;;;;;12.57;7.47;;;19.60;42.10;;;;;;4999755;28;20006;-75
2022/03/27 05:58:10;;;;;;;13.25;7.65;;;19.70;42.20;;;;;;5015683;28;20496;-75
2022/03/27 06:00:37;;;;;;;15.55;8.20;;;19.60;42.20;;;;;;4997859;28;20049;-74
2022/03/27 06:03:03;;;;;;;13.25;8.15;;;19.60;42.20;;;;;;4997848;28;20030;-74
2022/03/27 06:05:29;;;;;;;13.18;8.45;;;19.60;42.20;;;;;;4998910;28;20022;-75
2022/03/27 06:07:56;;;;;;;15.45;9.02;;;19.60;42.30;;;;;;4999425;28;20128;-75
2022/03/27 06:10:26;;;;;;;16.35;9.65;;;19.60;42.50;;;;;;5017770;28;20469;-75
2022/03/27 06:12:53;;;;;;;15.45;9.80;;;19.60;42.50;;;;;;5017809;28;20025;-75
2022/03/27 06:15:20;;;;;;;18.52;10.88;;;19.60;42.60;;;;;;5002201;28;20030;-75
2022/03/27 06:17:48;;;;;;;16.70;10.27;;;19.60;42.60;;;;;;4986993;28;20022;-75
2022/03/27 06:20:15;;;;;;;17.10;10.32;;;19.60;42.60;;;;;;5002918;28;20010;-74
2022/03/27 06:22:42;;;;;;;19.10;11.18;;;19.60;42.60;;;;;;4999871;28;20049;-75
2022/03/27 06:25:09;;;;;;;17.70;10.90;;;19.60;42.60;;;;;;4999400;28;20041;-74
2022/03/27 06:27:36;;;;;;;16.90;10.63;;;19.60;42.60;;;;;;4967352;28;20013;-74
2022/03/27 06:30:03;;;;;;;18.73;11.05;;;19.60;42.70;;;;;;4983518;28;20014;-75
2022/03/27 06:32:30;;;;;;;19.30;11.45;;;19.60;42.70;;;;;;4984240;28;20037;-74
2022/03/27 06:34:57;;;;;;;18.45;11.68;;;19.60;42.70;;;;;;5001664;28;20092;-75
2022/03/27 06:37:23;;;;;;;19.67;12.18;;;19.60;42.80;;;;;;5017511;28;20018;-78
2022/03/27 06:39:50;;;;;;;20.38;11.65;;;19.60;42.80;;;;;;4982760;28;20486;-76
2022/03/27 06:42:16;;;;;;;20.77;12.25;;;19.60;42.80;;;;;;4999316;28;20469;-75
2022/03/27 06:44:42;;;;;;;21.08;12.25;;;19.60;42.80;;;;;;4970210;28;20048;-76
2022/03/27 06:47:09;;;;;;;20.95;12.40;;;19.60;42.90;;;;;;4985998;28;20041;-76
2022/03/27 06:49:35;;;;;;;23.40;12.77;;;19.60;42.90;;;;;;5003076;28;20092;-78
2022/03/27 06:52:01;;;;;;;20.67;12.45;;;19.60;42.90;;;;;;4987591;28;20050;-74
2022/03/27 06:54:29;;;;;;;21.33;12.70;;;19.60;43.00;;;;;;5003280;28;20495;-75
2022/03/27 06:56:55;;;;;;;21.40;12.82;;;19.60;43.00;;;;;;5003419;28;20014;-76
2022/03/27 06:59:21;;;;;;;19.20;12.52;;;19.60;43.10;;;;;;4971511;28;20025;-78
2022/03/27 07:04:31;;;;;;;20.67;13.20;;;19.60;43.00;;;;;;5005917;28;20021;-76
2022/03/27 07:06:57;;;;;;;21.35;13.15;;;19.60;43.20;;;;;;4988841;28;20022;-76
2022/03/27 07:09:22;;;;;;;21.15;13.95;;;19.60;43.20;;;;;;4988565;28;20495;-76
2022/03/27 07:11:48;;;;;;;25.58;15.05;;;19.60;43.20;;;;;;4987861;28;20058;-75
2022/03/27 07:14:14;;;;;;;20.60;13.43;;;19.60;43.20;;;;;;4988394;28;20041;-78
2022/03/27 07:16:40;;;;;;;25.85;14.40;;;19.60;43.20;;;;;;5021813;28;20481;-75
2022/03/27 07:19:06;;;;;;;22.80;14.60;;;19.60;43.30;;;;;;4988783;28;20037;-75
2022/03/27 07:21:32;;;;;;;22.98;14.70;;;19.60;43.40;;;;;;5004576;28;20030;-75
2022/03/27 07:23:58;;;;;;;24.08;14.77;;;19.60;43.40;;;;;;4989215;28;20094;-77
2022/03/27 07:26:24;;;;;;;23.33;15.13;;;19.60;43.50;;;;;;5005980;28;20014;-78
2022/03/27 07:28:51;;;;;;;25.00;15.07;;;19.60;43.50;;;;;;5005702;28;20022;-75
2022/03/27 07:31:16;;;;;;;23.27;14.90;;;19.60;43.40;;;;;;4988770;28;20025;-75
2022/03/27 07:33:42;;;;;;;23.63;15.00;;;19.60;43.50;;;;;;4989322;28;20018;-75
2022/03/27 07:36:08;;;;;;;24.88;16.00;;;19.60;43.50;;;;;;4989187;28;20165;-79
2022/03/27 07:38:35;;;;;;;23.88;15.13;;;19.60;43.50;;;;;;4989625;28;20034;-75
2022/03/27 07:41:01;;;;;;;25.23;16.10;;;19.60;43.50;;;;;;5006272;28;20018;-74
2022/03/27 07:43:27;;;;;;;25.13;15.52;;;19.70;43.60;;;;;;5006079;28;20049;-76
2022/03/27 07:45:53;;;;;;;24.95;15.77;;;19.60;43.50;;;;;;5005146;28;20461;-73
2022/03/27 07:48:23;;;;;;;26.27;16.50;;;19.60;43.60;;;;;;4988598;28;20041;-73
2022/03/27 07:50:54;;;;;;;;;;;19.60;43.70;;;;;;5022161;28;20026;-73
2022/03/27 07:53:20;;;;;;;;;;;19.60;43.60;;;;;;5003961;28;20369;-74
2022/03/27 07:55:46;;;;;;;27.40;16.50;;;19.60;43.80;;;;;;5021167;28;19933;-73
2022/03/27 07:58:12;;;;;;;28.80;17.65;;;19.60;43.90;;;;;;5004302;28;20439;-76
2022/03/27 08:00:39;;;;;;;29.73;17.55;;;19.60;43.90;;;;;;5003737;28;20026;-78
2022/03/27 08:03:07;;;;;;;28.00;18.05;;;19.60;43.90;;;;;;4986912;28;20489;-73
2022/03/27 08:05:33;;;;;;;30.52;18.60;;;19.60;44.00;;;;;;5005348;28;20022;-73
2022/03/27 08:07:59;;;;;;;26.63;17.00;;;19.60;44.00;;;;;;5004994;28;20042;-75
2022/03/27 08:10:25;;;;;;;28.90;17.92;;;19.60;44.00;;;;;;5003913;28;20022;-73
2022/03/27 08:12:52;;;;;;;30.35;18.60;;;19.60;43.90;;;;;;5004054;28;20477;-73
2022/03/27 08:15:20;;;;;;;27.25;17.98;;;19.60;43.90;;;;;;4987711;28;20500;-74
2022/03/27 08:17:47;;;;;;;27.23;18.30;;;19.60;44.00;;;;;;4988048;28;20081;-75
2022/03/27 08:20:13;;;;;;;30.05;18.92;;;19.70;43.80;;;;;;5020170;28;20488;-77
2022/03/27 08:22:40;;;;;;;28.35;18.40;;;19.70;44.00;;;;;;5001450;28;20037;-75
2022/03/27 08:25:06;;;;;;;30.85;19.63;;;19.70;44.00;;;;;;5001516;28;20014;-73
2022/03/27 08:27:32;;;;;;;27.92;18.25;;;19.60;44.20;;;;;;5001694;28;20049;-77
2022/03/27 08:29:58;;;;;;;30.75;18.98;;;19.60;44.20;;;;;;5001243;28;20025;-75
2022/03/27 08:32:24;;;;;;;28.98;18.92;;;19.60;44.00;;;;;;5001316;28;20025;-74
2022/03/27 08:34:50;;;;;;;29.70;18.77;;;19.60;44.00;;;;;;5002481;28;20020;-75
2022/03/27 08:37:17;;;;;;;28.45;18.58;;;19.70;43.90;;;;;;4987997;28;20501;-74
2022/03/27 08:39:47;;;;;;;28.27;18.10;;;19.70;44.00;;;;;;5004302;28;20466;-75
2022/03/27 08:42:16;;;;;;;30.33;18.83;;;19.70;44.20;;;;;;5001925;28;20489;-74
2022/03/27 08:44:42;;;;;;;26.48;17.80;;;19.60;44.30;;;;;;4986261;28;20022;-77
2022/03/27 08:47:21;;;;;;;27.92;18.52;;;19.70;44.30;;;;;;5002737;28;20473;-75
2022/03/27 08:50:00;;;;;;;25.93;17.90;;;19.70;44.20;;;;;;5000417;28;20025;-75
2022/03/27 08:52:48;;;;;;;29.52;18.13;;;19.70;44.40;;;;;;4999694;28;20531;-74
2022/03/27 08:55:18;;;;;;;27.63;17.65;;;19.60;44.50;;;;;;4985404;28;20006;-75
2022/03/27 08:57:50;;;;;;;28.15;18.15;;;19.60;44.50;;;;;;4999764;28;20022;-78
2022/03/27 09:00:19;;;;;;;27.08;18.10;;;19.60;44.40;;;;;;5017222;28;20040;-74
2022/03/27 09:02:46;;;;;;;27.30;18.20;;;19.60;44.40;;;;;;5000784;28;20072;-74
2022/03/27 09:05:12;;;;;;;26.83;17.67;;;19.60;44.40;;;;;;4986351;28;20018;-77
2022/03/27 09:07:37;;;;;;;28.13;19.00;;;19.60;44.40;;;;;;5007393;28;20073;-75
2022/03/27 09:10:06;;;;;;;25.20;17.38;;;19.70;44.50;;;;;;5005824;28;20014;-75
2022/03/27 09:12:33;;;;;;;28.13;18.13;;;19.60;44.50;;;;;;5005576;28;20049;-76
2022/03/27 09:15:00;;;;;;;25.60;17.52;;;19.70;44.60;;;;;;5005540;28;20081;-76
2022/03/27 09:17:26;;;;;;;26.80;17.67;;;19.60;44.50;;;;;;5005446;28;20022;-76
2022/03/27 09:19:51;;;;;;;26.63;16.98;;;19.70;44.60;;;;;;5005143;28;20396;-75
2022/03/27 09:22:21;;;;;;;25.48;17.83;;;19.70;44.40;;;;;;4986905;28;20070;-77
2022/03/27 09:25:00;;;;;;;24.48;17.30;;;19.70;44.50;;;;;;4987407;28;20049;-79
2022/03/27 09:27:38;;;;;;;24.17;16.35;;;19.70;44.40;;;;;;5004640;28;20025;-75
2022/03/27 09:30:06;;;;;;;22.83;15.60;;;19.70;44.40;;;;;;4987037;28;20029;-77
2022/03/27 09:32:35;;;;;;;23.88;16.58;;;19.70;44.40;;;;;;4986341;28;20472;-77
2022/03/27 09:35:14;;;;;;;24.35;16.38;;;19.70;44.40;;;;;;4986721;28;20029;-77
2022/03/27 09:37:42;;;;;;;23.40;16.10;;;19.70;44.40;;;;;;5023664;28;20496;-78
2022/03/27 09:40:10;;;;;;;23.10;15.85;;;19.70;44.40;;;;;;5006427;28;20022;-73
2022/03/27 09:42:37;;;;;;;22.23;15.90;;;19.70;44.50;;;;;;4989449;28;20034;-76
2022/03/27 09:45:15;;;;;;;23.00;15.68;;;19.70;44.40;;;;;;5005567;28;20024;-77
2022/03/27 09:47:41;;;;;;;21.50;15.27;;;19.70;44.40;;;;;;5004811;28;20014;-77
2022/03/27 09:50:08;;;;;;;21.80;15.13;;;19.70;44.50;;;;;;4988277;28;20022;-76
2022/03/27 09:52:34;;;;;;;22.17;15.52;;;19.70;44.40;;;;;;5000016;28;20079;-75
2022/03/27 09:55:09;;;;;;;20.13;14.23;;;19.70;44.30;;;;;;4983330;28;20025;-76
2022/03/27 09:57:37;;;;;;;21.02;15.40;;;19.70;44.40;;;;;;5018117;28;20050;-75
2022/03/27 10:00:13;;;;;;;21.55;14.57;;;19.70;44.40;;;;;;5001371;28;20022;-75
2022/03/27 10:02:39;;;;;;;19.95;14.30;;;19.70;44.50;;;;;;5002196;28;20120;-75
2022/03/27 10:05:06;;;;;;;20.27;14.30;;;19.70;44.40;;;;;;4985521;28;20014;-76
2022/03/27 10:07:47;;;;;;;20.42;14.30;;;19.70;44.60;;;;;;4985568;28;20102;-77
2022/03/27 10:10:15;;;;;;;19.88;13.38;;;19.70;44.40;;;;;;4987243;28;20013;-77
2022/03/27 10:12:45;;;;;;;20.75;14.70;;;19.70;44.60;;;;;;4986423;28;20024;-79
2022/03/27 10:15:31;;;;;;;17.90;12.95;;;19.70;44.70;;;;;;5001677;28;20021;-77
2022/03/27 10:17:57;;;;;;;19.23;13.45;;;19.70;45.10;;;;;;5001268;28;20041;-77
2022/03/27 10:20:29;;;;;;;20.02;14.20;;;19.70;44.50;;;;;;5020314;28;20944;-78
2022/03/27 10:23:03;;;;;;;17.08;12.77;;;19.70;45.00;;;;;;5005047;28;20099;-80
2022/03/27 10:25:38;;;;;;;18.88;13.23;;;19.70;44.70;;;;;;5021340;28;20152;-77
2022/03/27 10:28:04;;;;;;;18.58;13.05;;;19.70;44.70;;;;;;4989254;28;20006;-80
2022/03/27 10:30:31;;;;;;;17.95;13.27;;;19.70;44.60;;;;;;5004681;28;20085;-78
2022/03/27 10:32:57;;;;;;;16.88;12.82;;;19.70;44.50;;;;;;4989856;28;20045;-79
2022/03/27 10:35:42;;;;;;;19.08;13.23;;;19.70;44.70;;;;;;4974546;28;20049;-79
2022/03/27 10:38:23;;;;;;;17.65;12.90;;;19.70;44.70;;;;;;5009160;28;20080;-78
2022/03/27 10:41:13;;;;;;;16.65;11.90;;;19.70;44.60;;;;;;4994126;28;20022;-77
2022/03/27 10:43:48;;;;;;;17.65;12.38;;;19.70;44.70;;;;;;5005227;28;20034;-78
2022/03/27 10:46:21;;;;;;;16.67;11.93;;;19.70;44.70;;;;;;5003057;28;20041;-76
2022/03/27 10:48:51;;;;;;;16.58;12.52;;;19.70;44.70;;;;;;4986686;28;20026;-77
2022/03/27 10:51:37;;;;;;;17.40;12.47;;;19.70;44.70;;;;;;5002267;28;20022;-77
2022/03/27 10:54:18;;;;;;;16.80;12.10;;;19.70;44.60;;;;;;4985857;28;20253;-81
2022/03/27 10:56:52;;;;;;;16.90;12.18;;;19.70;44.80;;;;;;5001579;28;20093;-79
2022/03/27 10:59:22;;;;;;;16.65;11.45;;;19.70;44.60;;;;;;5002374;28;20105;-76
2022/03/27 11:01:56;;;;;;;15.05;11.50;;;19.70;44.60;;;;;;4986890;28;20053;-78
2022/03/27 11:04:24;;;;;;;14.38;10.68;;;19.70;44.50;;;;;;5002626;28;20038;-77
2022/03/27 11:07:13;;;;;;;17.55;11.70;;;19.70;44.60;;;;;;5021242;28;20064;-77
2022/03/27 11:09:40;;;;;;;14.38;11.13;;;19.70;44.50;;;;;;5006710;28;20097;-77
2022/03/27 11:12:29;;;;;;;15.68;11.40;;;19.70;44.60;;;;;;4988181;28;20145;-76
2022/03/27 11:15:01;;;;;;;14.68;10.70;;;19.70;44.50;;;;;;5005410;28;20024;-77
2022/03/27 11:17:43;;;;;;;14.40;11.15;;;19.70;44.50;;;;;;5005148;28;20033;-78
2022/03/27 11:20:11;;;;;;;15.50;11.15;;;19.70;44.60;;;;;;5021874;28;20045;-77
2022/03/27 11:22:53;;;;;;;13.68;10.52;;;19.70;44.60;;;;;;4999320;28;20033;-74
2022/03/27 11:25:31;;;;;;;14.52;10.68;;;19.70;44.50;;;;;;4983635;28;20025;-77
2022/03/27 11:27:57;;;;;;;14.88;10.95;;;19.70;44.50;;;;;;5018644;28;20014;-75
2022/03/27 11:30:23;;;;;;;15.65;11.60;;;19.70;44.40;;;;;;4985228;28;20121;-75
2022/03/27 11:33:13;;;;;;;14.93;11.00;;;19.70;44.50;;;;;;5002446;28;20022;-75
2022/03/27 11:36:03;;;;;;;14.55;10.52;;;19.80;44.60;;;;;;5002072;28;20041;-77
2022/03/27 11:38:51;;;;;;;13.82;10.07;;;19.80;44.50;;;;;;5003207;28;20045;-75
2022/03/27 11:41:38;;;;;;;14.15;10.43;;;19.70;44.60;;;;;;5006577;28;20106;-77
2022/03/27 11:47:11;;;;;;;13.20;10.27;;;19.80;44.50;;;;;;5021211;28;20129;-76
2022/03/27 11:49:38;;;;;;;14.60;10.77;;;19.80;44.60;;;;;;5002340;28;20021;-76
2022/03/27 11:52:05;;;;;;;14.30;10.10;;;19.80;44.50;;;;;;5004201;28;20017;-76
2022/03/27 11:54:32;;;;;;;14.25;10.15;;;19.70;44.40;;;;;;5004575;28;20029;-76
2022/03/27 11:56:59;;;;;;;13.77;10.25;;;19.80;44.60;;;;;;5005087;28;20022;-75
2022/03/27 11:59:27;;;;;;;14.18;10.27;;;19.80;44.50;;;;;;4987814;28;20033;-78
2022/03/27 12:02:00;;;;;;;13.68;9.85;;;19.80;44.60;;;;;;5004134;28;20084;-77
2022/03/27 12:04:26;;;;;;;14.77;10.70;;;19.80;44.60;;;;;;5019874;28;20010;-74
2022/03/27 12:07:00;;;;;;;15.55;10.90;;;19.80;44.50;;;;;;5001447;28;20018;-78
2022/03/27 12:09:30;;;;;;;14.95;10.35;;;19.80;44.50;;;;;;5001468;28;20033;-74
2022/03/27 12:12:11;;;;;;;14.38;10.57;;;19.80;44.60;;;;;;5001143;28;20014;-74
2022/03/27 12:14:54;;;;;;;14.10;10.60;;;19.80;44.40;;;;;;5018054;28;20026;-73
2022/03/27 12:17:24;;;;;;;13.90;10.02;;;19.80;44.90;;;;;;5000275;28;20014;-73
2022/03/27 12:20:08;;;;;;;14.90;10.73;;;19.80;44.50;;;;;;4983601;28;20025;-75
2022/03/27 12:22:38;;;;;;;15.98;10.45;;;19.80;44.30;;;;;;5002474;28;20034;-75
2022/03/27 12:25:19;;;;;;;;;;;19.80;44.40;;;;;;5003771;28;20014;-75
2022/03/27 12:30:33;;;;;;;15.55;10.65;;;19.80;44.50;;;;;;5005056;28;20033;-74
2022/03/27 12:33:01;;;;;;;;;;;19.80;44.30;;;;;;5002550;28;20053;-75
2022/03/27 12:35:28;;;;;;;15.20;10.70;;;19.80;44.10;;;;;;5017708;28;20642;-74
2022/03/27 12:37:55;;;;;;;15.25;10.68;;;19.80;44.20;;;;;;5003016;28;20500;-73
2022/03/27 12:40:21;;;;;;;14.40;10.43;;;19.90;44.30;;;;;;5003007;28;20084;-74
2022/03/27 12:42:49;;;;;;;16.92;11.57;;;19.90;44.40;;;;;;5003339;28;20022;-75
2022/03/27 12:45:25;;;;;;;16.10;11.23;;;19.90;44.50;;;;;;5005078;28;20465;-78
2022/03/27 12:47:58;;;;;;;14.63;10.73;;;19.90;44.40;;;;;;5005037;28;20064;-77
2022/03/27 12:50:31;;;;;;;15.32;10.75;;;19.90;44.20;;;;;;5006147;28;20014;-79
2022/03/27 12:53:01;;;;;;;15.07;10.88;;;19.90;44.30;;;;;;5004733;28;20045;-77
2022/03/27 12:55:47;;;;;;;15.95;11.05;;;19.90;44.20;;;;;;5004288;28;20703;-76
2022/03/27 12:58:14;;;;;;;15.13;11.35;;;19.90;44.40;;;;;;5005224;28;20014;-78